Česky Dansk Deutsch English Español Suomi Français Magyar Italiano Nederlands norsk Polski Português svenska Türkçe

 

Het Weer

Khartoum (Sudan)

00:30, 22 augustus 2016 (GMT)

NWNNE
WE
SWSSE
Home            
Khartoum Sennar Kosti Atbara Gedaref El Obeid Kassala Renk Tessenei / Teseney Dongola Damazine Agordat Kadugli Gondar Port Sudan International Assosa / Asosa Port Sudan Malakal Axum Asmara Bahar Dar Wadi Halfa Massawa

Om een weerknop op uw website of weblog te plaatsen, copieer onderstaande code en plak die in uw pagina. In het eerste vakje staat HTML-code, in het tweede vakje UBB-code.


Add to Google

Details

Wind speed:3 bf, 7 kn, 3.6 m/s, 8.1 miles/h, 13.0 km/h
Wind direction:S, 170°
Visibility:Greater than 10000 m, 10 km, 32800 ft, 6.2 miles
Clouds:CAVOC
Temperature:28°C, 82°F
Gefühlte Temperatur:30°C, 86°F
Dew-point:21°C, 70°F
Atmospheric pressure:1011 hPa, 758.3 mmHg, 29.85 inHg, 0.998 atm
Relative humidity:65.8 %
METAR:HSSS 220030Z 17007KT CAVOK 28/21 Q1011 NOSIG

Snelkoppelingen

Actuele weersinformatie van de hele wereld. Voeg locaties toe met het plus (+) symbool. Deze snelkoppelingen kunnen worden toegevoegd aan Google.

Lid van de Technetium groep

website free tracking
StatCounter NetStat W3C Validator

17-04-2021 04:13:36
astro.technetium.be money.technetium.be phote.technetium.be tafeltennistafel.technetium.be www.ligfiets.net